sensor_id;sensor_type;location;lat;lon;timestamp;P1;durP1;ratioP1;P2;durP2;ratioP2
14554;SDS011;7364;50.870;4.722;2023-07-29T00:00:57;3.10;;;1.70;;
14554;SDS011;7364;50.870;4.722;2023-07-29T00:03:25;2.97;;;1.73;;
14554;SDS011;7364;50.870;4.722;2023-07-29T00:05:52;2.43;;;1.67;;
14554;SDS011;7364;50.870;4.722;2023-07-29T00:08:20;4.00;;;1.70;;
14554;SDS011;7364;50.870;4.722;2023-07-29T00:10:50;3.50;;;2.20;;
14554;SDS011;7364;50.870;4.722;2023-07-29T00:13:17;2.57;;;1.60;;
14554;SDS011;7364;50.870;4.722;2023-07-29T00:15:45;4.30;;;2.07;;
14554;SDS011;7364;50.870;4.722;2023-07-29T00:18:13;3.27;;;1.80;;
14554;SDS011;7364;50.870;4.722;2023-07-29T00:20:40;4.90;;;2.20;;
14554;SDS011;7364;50.870;4.722;2023-07-29T00:23:07;3.50;;;1.73;;
14554;SDS011;7364;50.870;4.722;2023-07-29T00:25:34;2.93;;;1.93;;
14554;SDS011;7364;50.870;4.722;2023-07-29T00:28:01;3.07;;;1.90;;
14554;SDS011;7364;50.870;4.722;2023-07-29T00:30:29;3.07;;;2.03;;
14554;SDS011;7364;50.870;4.722;2023-07-29T00:32:57;2.67;;;2.00;;
14554;SDS011;7364;50.870;4.722;2023-07-29T00:35:24;2.43;;;1.90;;
14554;SDS011;7364;50.870;4.722;2023-07-29T00:37:52;3.70;;;1.57;;
14554;SDS011;7364;50.870;4.722;2023-07-29T00:40:19;3.40;;;1.73;;
14554;SDS011;7364;50.870;4.722;2023-07-29T00:42:50;3.17;;;1.60;;
14554;SDS011;7364;50.870;4.722;2023-07-29T00:45:18;3.40;;;1.30;;
14554;SDS011;7364;50.870;4.722;2023-07-29T00:47:45;2.33;;;1.43;;
14554;SDS011;7364;50.870;4.722;2023-07-29T00:50:14;4.20;;;1.53;;
14554;SDS011;7364;50.870;4.722;2023-07-29T00:52:42;3.23;;;1.53;;
14554;SDS011;7364;50.870;4.722;2023-07-29T00:55:09;2.20;;;1.20;;
14554;SDS011;7364;50.870;4.722;2023-07-29T00:57:36;8.53;;;1.40;;
14554;SDS011;7364;50.870;4.722;2023-07-29T01:00:05;2.20;;;1.40;;
14554;SDS011;7364;50.870;4.722;2023-07-29T01:02:33;3.43;;;1.47;;
14554;SDS011;7364;50.870;4.722;2023-07-29T01:05:01;2.43;;;1.40;;
14554;SDS011;7364;50.870;4.722;2023-07-29T01:07:33;3.87;;;1.57;;
14554;SDS011;7364;50.870;4.722;2023-07-29T01:10:07;2.20;;;1.33;;
14554;SDS011;7364;50.870;4.722;2023-07-29T01:12:41;2.50;;;1.30;;
14554;SDS011;7364;50.870;4.722;2023-07-29T01:15:14;2.17;;;1.40;;
14554;SDS011;7364;50.870;4.722;2023-07-29T01:17:48;1.67;;;1.27;;
14554;SDS011;7364;50.870;4.722;2023-07-29T01:20:32;3.07;;;1.70;;
14554;SDS011;7364;50.870;4.722;2023-07-29T01:23:05;3.57;;;1.50;;
14554;SDS011;7364;50.870;4.722;2023-07-29T01:25:33;2.60;;;1.60;;
14554;SDS011;7364;50.870;4.722;2023-07-29T01:28:01;2.20;;;1.50;;
14554;SDS011;7364;50.870;4.722;2023-07-29T01:30:29;2.90;;;1.40;;
14554;SDS011;7364;50.870;4.722;2023-07-29T01:33:00;2.40;;;1.40;;
14554;SDS011;7364;50.870;4.722;2023-07-29T01:35:35;2.93;;;1.70;;
14554;SDS011;7364;50.870;4.722;2023-07-29T01:38:09;3.70;;;1.83;;
14554;SDS011;7364;50.870;4.722;2023-07-29T01:40:44;3.27;;;1.40;;
14554;SDS011;7364;50.870;4.722;2023-07-29T01:43:14;1.93;;;1.43;;
14554;SDS011;7364;50.870;4.722;2023-07-29T01:45:43;1.93;;;1.30;;
14554;SDS011;7364;50.870;4.722;2023-07-29T01:48:11;2.83;;;1.70;;
14554;SDS011;7364;50.870;4.722;2023-07-29T01:50:38;3.13;;;0.93;;
14554;SDS011;7364;50.870;4.722;2023-07-29T01:53:06;3.70;;;1.63;;
14554;SDS011;7364;50.870;4.722;2023-07-29T01:55:33;2.07;;;1.40;;
14554;SDS011;7364;50.870;4.722;2023-07-29T01:58:03;3.77;;;1.60;;
14554;SDS011;7364;50.870;4.722;2023-07-29T02:00:31;2.10;;;1.40;;
14554;SDS011;7364;50.870;4.722;2023-07-29T02:02:58;4.27;;;1.77;;
14554;SDS011;7364;50.870;4.722;2023-07-29T02:05:26;5.60;;;1.67;;
14554;SDS011;7364;50.870;4.722;2023-07-29T02:07:53;2.90;;;1.37;;
14554;SDS011;7364;50.870;4.722;2023-07-29T02:10:20;1.83;;;1.30;;
14554;SDS011;7364;50.870;4.722;2023-07-29T02:12:48;1.87;;;1.40;;
14554;SDS011;7364;50.870;4.722;2023-07-29T02:15:16;3.20;;;1.50;;
14554;SDS011;7364;50.870;4.722;2023-07-29T02:17:44;3.73;;;1.70;;
14554;SDS011;7364;50.870;4.722;2023-07-29T02:20:11;3.73;;;1.50;;
14554;SDS011;7364;50.870;4.722;2023-07-29T02:22:38;2.60;;;1.37;;
14554;SDS011;7364;50.870;4.722;2023-07-29T02:25:06;3.50;;;1.50;;
14554;SDS011;7364;50.870;4.722;2023-07-29T02:27:35;2.43;;;1.60;;
14554;SDS011;7364;50.870;4.722;2023-07-29T02:30:02;3.10;;;1.97;;
14554;SDS011;7364;50.870;4.722;2023-07-29T02:32:31;3.57;;;1.70;;
14554;SDS011;7364;50.870;4.722;2023-07-29T02:34:58;2.50;;;1.57;;
14554;SDS011;7364;50.870;4.722;2023-07-29T02:37:26;4.63;;;1.67;;
14554;SDS011;7364;50.870;4.722;2023-07-29T02:39:53;2.03;;;1.40;;
14554;SDS011;7364;50.870;4.722;2023-07-29T02:42:20;2.70;;;1.70;;
14554;SDS011;7364;50.870;4.722;2023-07-29T02:44:47;2.97;;;1.73;;
14554;SDS011;7364;50.870;4.722;2023-07-29T02:47:15;2.73;;;1.70;;
14554;SDS011;7364;50.870;4.722;2023-07-29T02:49:44;3.33;;;1.80;;
14554;SDS011;7364;50.870;4.722;2023-07-29T02:52:12;2.10;;;1.40;;
14554;SDS011;7364;50.870;4.722;2023-07-29T02:54:39;2.97;;;1.70;;
14554;SDS011;7364;50.870;4.722;2023-07-29T02:57:06;3.37;;;1.83;;
14554;SDS011;7364;50.870;4.722;2023-07-29T02:59:34;3.50;;;1.90;;
14554;SDS011;7364;50.870;4.722;2023-07-29T03:02:01;3.63;;;1.90;;
14554;SDS011;7364;50.870;4.722;2023-07-29T03:04:28;4.97;;;2.00;;
14554;SDS011;7364;50.870;4.722;2023-07-29T03:06:57;3.07;;;1.80;;
14554;SDS011;7364;50.870;4.722;2023-07-29T03:09:24;3.67;;;1.80;;
14554;SDS011;7364;50.870;4.722;2023-07-29T03:11:51;5.43;;;2.10;;
14554;SDS011;7364;50.870;4.722;2023-07-29T03:14:20;3.87;;;2.10;;
14554;SDS011;7364;50.870;4.722;2023-07-29T03:16:47;2.93;;;1.50;;
14554;SDS011;7364;50.870;4.722;2023-07-29T03:19:14;2.47;;;1.60;;
14554;SDS011;7364;50.870;4.722;2023-07-29T03:21:42;3.77;;;2.00;;
14554;SDS011;7364;50.870;4.722;2023-07-29T03:24:10;2.97;;;1.90;;
14554;SDS011;7364;50.870;4.722;2023-07-29T03:26:40;4.07;;;1.77;;
14554;SDS011;7364;50.870;4.722;2023-07-29T03:29:07;3.70;;;2.00;;
14554;SDS011;7364;50.870;4.722;2023-07-29T03:31:34;3.53;;;2.20;;
14554;SDS011;7364;50.870;4.722;2023-07-29T03:34:01;3.70;;;2.30;;
14554;SDS011;7364;50.870;4.722;2023-07-29T03:36:29;3.63;;;1.93;;
14554;SDS011;7364;50.870;4.722;2023-07-29T03:38:56;4.50;;;2.00;;
14554;SDS011;7364;50.870;4.722;2023-07-29T03:41:25;3.73;;;2.10;;
14554;SDS011;7364;50.870;4.722;2023-07-29T03:43:52;3.20;;;2.10;;
14554;SDS011;7364;50.870;4.722;2023-07-29T03:46:19;3.20;;;2.07;;
14554;SDS011;7364;50.870;4.722;2023-07-29T03:48:47;3.10;;;1.87;;
14554;SDS011;7364;50.870;4.722;2023-07-29T03:51:14;5.13;;;1.90;;
14554;SDS011;7364;50.870;4.722;2023-07-29T03:53:42;3.03;;;2.30;;
14554;SDS011;7364;50.870;4.722;2023-07-29T03:56:09;3.03;;;2.10;;
14554;SDS011;7364;50.870;4.722;2023-07-29T03:58:37;2.93;;;1.80;;
14554;SDS011;7364;50.870;4.722;2023-07-29T04:01:05;3.70;;;1.90;;
14554;SDS011;7364;50.870;4.722;2023-07-29T04:03:32;3.43;;;2.13;;
14554;SDS011;7364;50.870;4.722;2023-07-29T04:06:00;1.90;;;1.60;;
14554;SDS011;7364;50.870;4.722;2023-07-29T04:08:28;6.33;;;2.10;;
14554;SDS011;7364;50.870;4.722;2023-07-29T04:10:55;5.43;;;2.00;;
14554;SDS011;7364;50.870;4.722;2023-07-29T04:13:22;3.57;;;1.90;;
14554;SDS011;7364;50.870;4.722;2023-07-29T04:15:51;3.47;;;2.17;;
14554;SDS011;7364;50.870;4.722;2023-07-29T04:18:18;2.90;;;1.97;;
14554;SDS011;7364;50.870;4.722;2023-07-29T04:20:45;3.27;;;1.90;;
14554;SDS011;7364;50.870;4.722;2023-07-29T04:23:12;3.53;;;1.90;;
14554;SDS011;7364;50.870;4.722;2023-07-29T04:25:40;2.67;;;1.70;;
14554;SDS011;7364;50.870;4.722;2023-07-29T04:28:07;4.97;;;2.20;;
14554;SDS011;7364;50.870;4.722;2023-07-29T04:30:34;3.00;;;1.80;;
14554;SDS011;7364;50.870;4.722;2023-07-29T04:33:03;4.67;;;1.93;;
14554;SDS011;7364;50.870;4.722;2023-07-29T04:35:30;3.77;;;2.40;;
14554;SDS011;7364;50.870;4.722;2023-07-29T04:37:57;5.00;;;2.27;;
14554;SDS011;7364;50.870;4.722;2023-07-29T04:40:24;5.37;;;2.20;;
14554;SDS011;7364;50.870;4.722;2023-07-29T04:42:51;3.57;;;1.70;;
14554;SDS011;7364;50.870;4.722;2023-07-29T04:45:19;3.60;;;1.77;;
14554;SDS011;7364;50.870;4.722;2023-07-29T04:47:46;3.50;;;1.70;;
14554;SDS011;7364;50.870;4.722;2023-07-29T04:50:15;3.13;;;1.63;;
14554;SDS011;7364;50.870;4.722;2023-07-29T04:52:42;2.53;;;1.67;;
14554;SDS011;7364;50.870;4.722;2023-07-29T04:55:10;3.43;;;1.67;;
14554;SDS011;7364;50.870;4.722;2023-07-29T04:57:37;3.23;;;1.90;;
14554;SDS011;7364;50.870;4.722;2023-07-29T05:00:05;3.20;;;1.73;;
14554;SDS011;7364;50.870;4.722;2023-07-29T05:02:33;3.67;;;1.73;;
14554;SDS011;7364;50.870;4.722;2023-07-29T05:05:00;3.87;;;2.17;;
14554;SDS011;7364;50.870;4.722;2023-07-29T05:07:29;3.87;;;1.93;;
14554;SDS011;7364;50.870;4.722;2023-07-29T05:09:56;3.23;;;1.83;;
14554;SDS011;7364;50.870;4.722;2023-07-29T05:12:24;4.27;;;2.17;;
14554;SDS011;7364;50.870;4.722;2023-07-29T05:14:51;5.83;;;1.60;;
14554;SDS011;7364;50.870;4.722;2023-07-29T05:17:19;3.33;;;1.90;;
14554;SDS011;7364;50.870;4.722;2023-07-29T05:19:46;1.80;;;1.33;;
14554;SDS011;7364;50.870;4.722;2023-07-29T05:22:13;3.17;;;1.63;;
14554;SDS011;7364;50.870;4.722;2023-07-29T05:24:42;4.63;;;1.77;;
14554;SDS011;7364;50.870;4.722;2023-07-29T05:27:09;3.47;;;1.60;;
14554;SDS011;7364;50.870;4.722;2023-07-29T05:29:36;3.40;;;1.90;;
14554;SDS011;7364;50.870;4.722;2023-07-29T05:32:04;3.73;;;1.73;;
14554;SDS011;7364;50.870;4.722;2023-07-29T05:34:32;5.53;;;2.40;;
14554;SDS011;7364;50.870;4.722;2023-07-29T05:36:59;3.40;;;2.10;;
14554;SDS011;7364;50.870;4.722;2023-07-29T05:39:26;2.70;;;1.87;;
14554;SDS011;7364;50.870;4.722;2023-07-29T05:41:55;2.50;;;1.60;;
14554;SDS011;7364;50.870;4.722;2023-07-29T05:44:22;2.20;;;1.73;;
14554;SDS011;7364;50.870;4.722;2023-07-29T05:46:49;2.90;;;1.57;;
14554;SDS011;7364;50.870;4.722;2023-07-29T05:49:17;4.17;;;1.80;;
14554;SDS011;7364;50.870;4.722;2023-07-29T05:51:44;2.73;;;1.60;;
14554;SDS011;7364;50.870;4.722;2023-07-29T05:54:11;2.57;;;1.63;;
14554;SDS011;7364;50.870;4.722;2023-07-29T05:56:39;3.37;;;1.70;;
14554;SDS011;7364;50.870;4.722;2023-07-29T05:59:07;4.77;;;1.80;;
14554;SDS011;7364;50.870;4.722;2023-07-29T06:01:34;4.97;;;1.70;;
14554;SDS011;7364;50.870;4.722;2023-07-29T06:04:02;3.70;;;1.53;;
14554;SDS011;7364;50.870;4.722;2023-07-29T06:06:29;3.50;;;1.50;;
14554;SDS011;7364;50.870;4.722;2023-07-29T06:08:56;3.03;;;1.83;;
14554;SDS011;7364;50.870;4.722;2023-07-29T06:11:24;4.80;;;1.57;;
14554;SDS011;7364;50.870;4.722;2023-07-29T06:13:52;4.53;;;1.80;;
14554;SDS011;7364;50.870;4.722;2023-07-29T06:16:20;3.00;;;1.70;;
14554;SDS011;7364;50.870;4.722;2023-07-29T06:18:47;1.97;;;1.40;;
14554;SDS011;7364;50.870;4.722;2023-07-29T06:21:15;2.33;;;1.40;;
14554;SDS011;7364;50.870;4.722;2023-07-29T06:23:44;4.43;;;1.37;;
14554;SDS011;7364;50.870;4.722;2023-07-29T06:26:11;1.90;;;1.50;;
14554;SDS011;7364;50.870;4.722;2023-07-29T06:28:38;3.33;;;1.30;;
14554;SDS011;7364;50.870;4.722;2023-07-29T06:31:05;2.97;;;1.40;;
14554;SDS011;7364;50.870;4.722;2023-07-29T06:33:34;4.33;;;1.70;;
14554;SDS011;7364;50.870;4.722;2023-07-29T06:36:01;2.03;;;1.43;;
14554;SDS011;7364;50.870;4.722;2023-07-29T06:38:29;2.20;;;1.30;;
14554;SDS011;7364;50.870;4.722;2023-07-29T06:40:56;4.83;;;1.70;;
14554;SDS011;7364;50.870;4.722;2023-07-29T06:43:23;3.33;;;1.40;;
14554;SDS011;7364;50.870;4.722;2023-07-29T06:45:51;1.87;;;1.10;;
14554;SDS011;7364;50.870;4.722;2023-07-29T06:48:18;3.40;;;1.30;;
14554;SDS011;7364;50.870;4.722;2023-07-29T06:50:47;2.90;;;1.60;;
14554;SDS011;7364;50.870;4.722;2023-07-29T06:53:15;2.40;;;1.50;;
14554;SDS011;7364;50.870;4.722;2023-07-29T06:55:42;3.37;;;1.27;;
14554;SDS011;7364;50.870;4.722;2023-07-29T06:58:10;4.03;;;1.50;;
14554;SDS011;7364;50.870;4.722;2023-07-29T07:00:37;2.37;;;1.20;;
14554;SDS011;7364;50.870;4.722;2023-07-29T07:03:05;3.03;;;1.30;;
14554;SDS011;7364;50.870;4.722;2023-07-29T07:05:32;3.47;;;1.50;;
14554;SDS011;7364;50.870;4.722;2023-07-29T07:08:00;1.60;;;1.23;;
14554;SDS011;7364;50.870;4.722;2023-07-29T07:10:28;3.57;;;1.40;;
14554;SDS011;7364;50.870;4.722;2023-07-29T07:12:55;4.73;;;1.60;;
14554;SDS011;7364;50.870;4.722;2023-07-29T07:15:22;1.90;;;1.10;;
14554;SDS011;7364;50.870;4.722;2023-07-29T07:17:50;2.20;;;1.33;;
14554;SDS011;7364;50.870;4.722;2023-07-29T07:20:18;2.60;;;1.30;;
14554;SDS011;7364;50.870;4.722;2023-07-29T07:22:45;2.60;;;1.20;;
14554;SDS011;7364;50.870;4.722;2023-07-29T07:25:14;6.00;;;1.50;;
14554;SDS011;7364;50.870;4.722;2023-07-29T07:27:41;4.47;;;2.03;;
14554;SDS011;7364;50.870;4.722;2023-07-29T07:30:09;3.07;;;1.30;;
14554;SDS011;7364;50.870;4.722;2023-07-29T07:32:37;1.83;;;1.10;;
14554;SDS011;7364;50.870;4.722;2023-07-29T07:35:05;2.27;;;1.30;;
14554;SDS011;7364;50.870;4.722;2023-07-29T07:37:32;2.97;;;1.30;;
14554;SDS011;7364;50.870;4.722;2023-07-29T07:39:59;2.60;;;1.57;;
14554;SDS011;7364;50.870;4.722;2023-07-29T07:42:29;2.23;;;1.20;;
14554;SDS011;7364;50.870;4.722;2023-07-29T07:44:56;3.50;;;1.30;;
14554;SDS011;7364;50.870;4.722;2023-07-29T07:47:23;2.23;;;1.50;;
14554;SDS011;7364;50.870;4.722;2023-07-29T07:49:51;2.43;;;1.40;;
14554;SDS011;7364;50.870;4.722;2023-07-29T07:52:18;3.33;;;1.70;;
14554;SDS011;7364;50.870;4.722;2023-07-29T07:54:45;4.17;;;1.23;;
14554;SDS011;7364;50.870;4.722;2023-07-29T07:57:17;1.67;;;1.10;;
14554;SDS011;7364;50.870;4.722;2023-07-29T07:59:47;2.20;;;1.10;;
14554;SDS011;7364;50.870;4.722;2023-07-29T08:02:16;2.17;;;1.30;;
14554;SDS011;7364;50.870;4.722;2023-07-29T08:04:43;2.13;;;1.40;;
14554;SDS011;7364;50.870;4.722;2023-07-29T08:07:10;1.93;;;1.13;;
14554;SDS011;7364;50.870;4.722;2023-07-29T08:09:38;2.33;;;1.40;;
14554;SDS011;7364;50.870;4.722;2023-07-29T08:12:06;2.27;;;1.53;;
14554;SDS011;7364;50.870;4.722;2023-07-29T08:14:33;3.50;;;1.40;;
14554;SDS011;7364;50.870;4.722;2023-07-29T08:17:02;2.73;;;1.13;;
14554;SDS011;7364;50.870;4.722;2023-07-29T08:19:29;1.77;;;1.13;;
14554;SDS011;7364;50.870;4.722;2023-07-29T08:21:57;1.87;;;1.10;;
14554;SDS011;7364;50.870;4.722;2023-07-29T08:24:24;1.60;;;1.23;;
14554;SDS011;7364;50.870;4.722;2023-07-29T08:26:51;3.40;;;1.33;;
14554;SDS011;7364;50.870;4.722;2023-07-29T08:29:18;2.47;;;1.17;;
14554;SDS011;7364;50.870;4.722;2023-07-29T08:31:45;2.73;;;1.90;;
14554;SDS011;7364;50.870;4.722;2023-07-29T08:34:14;1.80;;;1.00;;
14554;SDS011;7364;50.870;4.722;2023-07-29T08:36:41;2.40;;;1.40;;
14554;SDS011;7364;50.870;4.722;2023-07-29T08:39:08;4.47;;;1.70;;
14554;SDS011;7364;50.870;4.722;2023-07-29T08:41:37;2.00;;;1.20;;
14554;SDS011;7364;50.870;4.722;2023-07-29T08:44:12;1.77;;;1.10;;
14554;SDS011;7364;50.870;4.722;2023-07-29T08:46:45;3.27;;;1.37;;
14554;SDS011;7364;50.870;4.722;2023-07-29T08:49:14;3.07;;;1.40;;
14554;SDS011;7364;50.870;4.722;2023-07-29T08:51:44;2.40;;;1.60;;
14554;SDS011;7364;50.870;4.722;2023-07-29T08:54:12;3.40;;;1.30;;
14554;SDS011;7364;50.870;4.722;2023-07-29T08:56:40;3.03;;;1.27;;
14554;SDS011;7364;50.870;4.722;2023-07-29T08:59:08;3.00;;;1.53;;
14554;SDS011;7364;50.870;4.722;2023-07-29T09:01:37;2.60;;;1.23;;
14554;SDS011;7364;50.870;4.722;2023-07-29T09:04:05;1.83;;;1.20;;
14554;SDS011;7364;50.870;4.722;2023-07-29T09:06:33;2.10;;;1.40;;
14554;SDS011;7364;50.870;4.722;2023-07-29T09:09:03;1.83;;;1.20;;
14554;SDS011;7364;50.870;4.722;2023-07-29T09:11:30;1.87;;;1.27;;
14554;SDS011;7364;50.870;4.722;2023-07-29T09:13:59;2.80;;;1.53;;
14554;SDS011;7364;50.870;4.722;2023-07-29T09:16:26;2.20;;;1.30;;
14554;SDS011;7364;50.870;4.722;2023-07-29T09:18:52;4.13;;;1.40;;
14554;SDS011;7364;50.870;4.722;2023-07-29T09:21:22;2.27;;;1.33;;
14554;SDS011;7364;50.870;4.722;2023-07-29T09:23:53;2.50;;;1.40;;
14554;SDS011;7364;50.870;4.722;2023-07-29T09:26:24;3.77;;;1.40;;
14554;SDS011;7364;50.870;4.722;2023-07-29T09:28:52;1.27;;;1.13;;
14554;SDS011;7364;50.870;4.722;2023-07-29T09:31:20;1.80;;;1.40;;
14554;SDS011;7364;50.870;4.722;2023-07-29T09:33:48;3.23;;;1.50;;
14554;SDS011;7364;50.870;4.722;2023-07-29T09:36:16;2.10;;;1.30;;
14554;SDS011;7364;50.870;4.722;2023-07-29T09:38:43;3.40;;;1.30;;
14554;SDS011;7364;50.870;4.722;2023-07-29T09:41:12;2.80;;;1.50;;
14554;SDS011;7364;50.870;4.722;2023-07-29T09:43:41;2.47;;;1.40;;
14554;SDS011;7364;50.870;4.722;2023-07-29T09:46:09;2.83;;;1.73;;
14554;SDS011;7364;50.870;4.722;2023-07-29T09:48:36;4.67;;;1.80;;
14554;SDS011;7364;50.870;4.722;2023-07-29T09:51:10;3.60;;;2.00;;
14554;SDS011;7364;50.870;4.722;2023-07-29T09:53:39;1.80;;;1.40;;
14554;SDS011;7364;50.870;4.722;2023-07-29T09:56:08;3.37;;;1.70;;
14554;SDS011;7364;50.870;4.722;2023-07-29T09:58:37;2.63;;;1.80;;
14554;SDS011;7364;50.870;4.722;2023-07-29T10:01:05;3.43;;;1.57;;
14554;SDS011;7364;50.870;4.722;2023-07-29T10:03:33;5.53;;;1.70;;
14554;SDS011;7364;50.870;4.722;2023-07-29T10:06:02;3.93;;;1.60;;
14554;SDS011;7364;50.870;4.722;2023-07-29T10:08:30;2.70;;;1.60;;
14554;SDS011;7364;50.870;4.722;2023-07-29T10:11:00;1.87;;;1.17;;
14554;SDS011;7364;50.870;4.722;2023-07-29T10:13:28;2.33;;;1.60;;
14554;SDS011;7364;50.870;4.722;2023-07-29T10:15:57;3.63;;;1.33;;
14554;SDS011;7364;50.870;4.722;2023-07-29T10:18:24;2.87;;;1.67;;
14554;SDS011;7364;50.870;4.722;2023-07-29T10:20:53;2.17;;;1.50;;
14554;SDS011;7364;50.870;4.722;2023-07-29T10:23:22;3.10;;;1.70;;
14554;SDS011;7364;50.870;4.722;2023-07-29T10:25:54;4.53;;;1.80;;
14554;SDS011;7364;50.870;4.722;2023-07-29T10:28:26;2.07;;;1.50;;
14554;SDS011;7364;50.870;4.722;2023-07-29T10:30:57;2.17;;;1.40;;
14554;SDS011;7364;50.870;4.722;2023-07-29T10:33:25;4.97;;;1.93;;
14554;SDS011;7364;50.870;4.722;2023-07-29T10:35:53;2.17;;;1.50;;
14554;SDS011;7364;50.870;4.722;2023-07-29T10:38:21;1.80;;;1.37;;
14554;SDS011;7364;50.870;4.722;2023-07-29T10:40:50;8.03;;;2.23;;
14554;SDS011;7364;50.870;4.722;2023-07-29T10:43:24;4.43;;;2.40;;
14554;SDS011;7364;50.870;4.722;2023-07-29T10:45:52;4.83;;;1.80;;
14554;SDS011;7364;50.870;4.722;2023-07-29T10:48:41;3.87;;;1.93;;
14554;SDS011;7364;50.870;4.722;2023-07-29T10:51:23;3.97;;;2.20;;
14554;SDS011;7364;50.870;4.722;2023-07-29T10:53:54;3.20;;;2.20;;
14554;SDS011;7364;50.870;4.722;2023-07-29T10:56:29;3.80;;;2.30;;
14554;SDS011;7364;50.870;4.722;2023-07-29T10:58:58;2.87;;;1.97;;
14554;SDS011;7364;50.870;4.722;2023-07-29T11:01:29;3.93;;;2.43;;
14554;SDS011;7364;50.870;4.722;2023-07-29T11:09:54;3.80;;;2.40;;
14554;SDS011;7364;50.870;4.722;2023-07-29T11:12:39;2.70;;;1.87;;
14554;SDS011;7364;50.870;4.722;2023-07-29T11:15:12;3.57;;;2.17;;
14554;SDS011;7364;50.870;4.722;2023-07-29T11:17:44;3.23;;;2.00;;
14554;SDS011;7364;50.870;4.722;2023-07-29T11:20:14;4.83;;;2.40;;
14554;SDS011;7364;50.870;4.722;2023-07-29T11:22:42;4.20;;;2.40;;
14554;SDS011;7364;50.870;4.722;2023-07-29T11:25:10;3.53;;;2.20;;
14554;SDS011;7364;50.870;4.722;2023-07-29T11:27:39;3.60;;;2.50;;
14554;SDS011;7364;50.870;4.722;2023-07-29T11:30:07;4.97;;;2.20;;
14554;SDS011;7364;50.870;4.722;2023-07-29T11:32:36;3.80;;;2.30;;
14554;SDS011;7364;50.870;4.722;2023-07-29T11:35:04;3.50;;;1.90;;
14554;SDS011;7364;50.870;4.722;2023-07-29T11:37:37;2.90;;;2.10;;
14554;SDS011;7364;50.870;4.722;2023-07-29T11:40:05;5.93;;;2.67;;
14554;SDS011;7364;50.870;4.722;2023-07-29T11:42:35;3.63;;;2.17;;
14554;SDS011;7364;50.870;4.722;2023-07-29T11:45:04;3.37;;;1.90;;
14554;SDS011;7364;50.870;4.722;2023-07-29T11:47:33;2.87;;;1.90;;
14554;SDS011;7364;50.870;4.722;2023-07-29T11:50:02;3.10;;;1.90;;
14554;SDS011;7364;50.870;4.722;2023-07-29T11:52:31;4.40;;;2.57;;
14554;SDS011;7364;50.870;4.722;2023-07-29T11:55:01;3.13;;;2.43;;
14554;SDS011;7364;50.870;4.722;2023-07-29T11:57:29;3.37;;;2.20;;
14554;SDS011;7364;50.870;4.722;2023-07-29T11:59:57;5.37;;;2.50;;
14554;SDS011;7364;50.870;4.722;2023-07-29T12:02:24;3.90;;;2.67;;
14554;SDS011;7364;50.870;4.722;2023-07-29T12:04:52;2.80;;;2.03;;
14554;SDS011;7364;50.870;4.722;2023-07-29T12:07:20;3.10;;;2.10;;
14554;SDS011;7364;50.870;4.722;2023-07-29T12:09:48;3.30;;;1.87;;
14554;SDS011;7364;50.870;4.722;2023-07-29T12:12:18;3.40;;;2.03;;
14554;SDS011;7364;50.870;4.722;2023-07-29T12:14:45;4.23;;;1.90;;
14554;SDS011;7364;50.870;4.722;2023-07-29T12:17:12;3.03;;;1.83;;
14554;SDS011;7364;50.870;4.722;2023-07-29T12:19:40;3.17;;;2.13;;
14554;SDS011;7364;50.870;4.722;2023-07-29T12:22:09;3.27;;;1.73;;
14554;SDS011;7364;50.870;4.722;2023-07-29T12:24:38;2.00;;;1.50;;
14554;SDS011;7364;50.870;4.722;2023-07-29T12:27:10;2.27;;;1.70;;
14554;SDS011;7364;50.870;4.722;2023-07-29T12:29:43;2.73;;;1.73;;
14554;SDS011;7364;50.870;4.722;2023-07-29T12:32:13;3.13;;;1.90;;
14554;SDS011;7364;50.870;4.722;2023-07-29T12:34:41;5.00;;;1.70;;
14554;SDS011;7364;50.870;4.722;2023-07-29T12:37:08;2.60;;;1.80;;
14554;SDS011;7364;50.870;4.722;2023-07-29T12:39:39;2.03;;;1.57;;
14554;SDS011;7364;50.870;4.722;2023-07-29T12:42:06;3.13;;;1.67;;
14554;SDS011;7364;50.870;4.722;2023-07-29T12:44:34;2.37;;;1.87;;
14554;SDS011;7364;50.870;4.722;2023-07-29T12:47:04;3.10;;;2.27;;
14554;SDS011;7364;50.870;4.722;2023-07-29T12:49:34;2.23;;;1.80;;
14554;SDS011;7364;50.870;4.722;2023-07-29T12:52:01;4.87;;;2.57;;
14554;SDS011;7364;50.870;4.722;2023-07-29T12:54:28;3.67;;;2.60;;
14554;SDS011;7364;50.870;4.722;2023-07-29T12:56:55;4.50;;;2.83;;
14554;SDS011;7364;50.870;4.722;2023-07-29T12:59:23;6.47;;;2.47;;
14554;SDS011;7364;50.870;4.722;2023-07-29T13:01:50;4.33;;;2.93;;
14554;SDS011;7364;50.870;4.722;2023-07-29T13:04:19;5.23;;;3.13;;
14554;SDS011;7364;50.870;4.722;2023-07-29T13:06:47;3.10;;;2.63;;
14554;SDS011;7364;50.870;4.722;2023-07-29T13:09:14;4.27;;;3.20;;
14554;SDS011;7364;50.870;4.722;2023-07-29T13:11:41;3.60;;;2.97;;
14554;SDS011;7364;50.870;4.722;2023-07-29T13:14:08;3.17;;;2.47;;
14554;SDS011;7364;50.870;4.722;2023-07-29T13:16:36;3.27;;;2.67;;
14554;SDS011;7364;50.870;4.722;2023-07-29T13:19:03;4.03;;;2.83;;
14554;SDS011;7364;50.870;4.722;2023-07-29T13:21:31;3.33;;;2.57;;
14554;SDS011;7364;50.870;4.722;2023-07-29T13:23:59;2.60;;;2.00;;
14554;SDS011;7364;50.870;4.722;2023-07-29T13:26:26;2.67;;;1.60;;
14554;SDS011;7364;50.870;4.722;2023-07-29T13:28:53;2.80;;;1.87;;
14554;SDS011;7364;50.870;4.722;2023-07-29T13:31:21;2.57;;;1.60;;
14554;SDS011;7364;50.870;4.722;2023-07-29T13:33:48;1.80;;;1.30;;
14554;SDS011;7364;50.870;4.722;2023-07-29T13:36:15;1.58;;;1.30;;
14554;SDS011;7364;50.870;4.722;2023-07-29T13:38:44;1.52;;;1.30;;
14554;SDS011;7364;50.870;4.722;2023-07-29T13:41:11;1.08;;;1.02;;
14554;SDS011;7364;50.870;4.722;2023-07-29T13:43:38;2.55;;;1.30;;
14554;SDS011;7364;50.870;4.722;2023-07-29T13:46:05;1.27;;;0.98;;
14554;SDS011;7364;50.870;4.722;2023-07-29T13:48:33;1.58;;;0.93;;
14554;SDS011;7364;50.870;4.722;2023-07-29T13:51:01;1.70;;;1.20;;
14554;SDS011;7364;50.870;4.722;2023-07-29T13:53:28;2.07;;;1.50;;
14554;SDS011;7364;50.870;4.722;2023-07-29T13:55:56;2.40;;;1.30;;
14554;SDS011;7364;50.870;4.722;2023-07-29T13:58:24;2.50;;;1.67;;
14554;SDS011;7364;50.870;4.722;2023-07-29T14:00:51;2.83;;;1.73;;
14554;SDS011;7364;50.870;4.722;2023-07-29T14:03:18;3.27;;;2.23;;
14554;SDS011;7364;50.870;4.722;2023-07-29T14:05:46;1.73;;;1.35;;
14554;SDS011;7364;50.870;4.722;2023-07-29T14:08:14;2.58;;;1.42;;
14554;SDS011;7364;50.870;4.722;2023-07-29T14:10:42;1.73;;;1.33;;
14554;SDS011;7364;50.870;4.722;2023-07-29T14:13:11;2.60;;;1.70;;
14554;SDS011;7364;50.870;4.722;2023-07-29T14:15:38;1.27;;;1.05;;
14554;SDS011;7364;50.870;4.722;2023-07-29T14:18:06;3.37;;;1.77;;
14554;SDS011;7364;50.870;4.722;2023-07-29T14:20:34;2.50;;;1.60;;
14554;SDS011;7364;50.870;4.722;2023-07-29T14:23:01;3.30;;;1.50;;
14554;SDS011;7364;50.870;4.722;2023-07-29T14:25:28;3.37;;;1.90;;
14554;SDS011;7364;50.870;4.722;2023-07-29T14:27:56;1.63;;;1.40;;
14554;SDS011;7364;50.870;4.722;2023-07-29T14:30:24;3.40;;;2.07;;
14554;SDS011;7364;50.870;4.722;2023-07-29T14:32:52;2.73;;;1.60;;
14554;SDS011;7364;50.870;4.722;2023-07-29T14:35:19;2.37;;;1.50;;
14554;SDS011;7364;50.870;4.722;2023-07-29T14:37:46;1.20;;;1.03;;
14554;SDS011;7364;50.870;4.722;2023-07-29T14:40:13;2.37;;;1.43;;
14554;SDS011;7364;50.870;4.722;2023-07-29T14:42:41;1.60;;;1.20;;
14554;SDS011;7364;50.870;4.722;2023-07-29T14:45:09;1.67;;;1.13;;
14554;SDS011;7364;50.870;4.722;2023-07-29T14:47:39;1.65;;;1.33;;
14554;SDS011;7364;50.870;4.722;2023-07-29T14:50:07;1.33;;;1.02;;
14554;SDS011;7364;50.870;4.722;2023-07-29T14:52:34;2.63;;;1.15;;
14554;SDS011;7364;50.870;4.722;2023-07-29T14:55:01;1.38;;;0.90;;
14554;SDS011;7364;50.870;4.722;2023-07-29T14:57:29;1.60;;;1.33;;
14554;SDS011;7364;50.870;4.722;2023-07-29T14:59:57;1.73;;;0.98;;
14554;SDS011;7364;50.870;4.722;2023-07-29T15:02:24;1.70;;;1.00;;
14554;SDS011;7364;50.870;4.722;2023-07-29T15:04:53;2.25;;;1.30;;
14554;SDS011;7364;50.870;4.722;2023-07-29T15:07:20;2.08;;;1.35;;
14554;SDS011;7364;50.870;4.722;2023-07-29T15:09:48;1.17;;;1.00;;
14554;SDS011;7364;50.870;4.722;2023-07-29T15:12:15;2.00;;;1.13;;